Time,TemperatureF,DewpointF,PressureIn,WindDirection,WindDirectionDegrees,WindSpeedMPH,WindSpeedGustMPH,Humidity,HourlyPrecipIn,Conditions,Clouds,dailyrainin,SoftwareType,DateUTC
2013-04-24 00:02:00,24.0,20.0,-100.00,East,100,4.0,6.0,81,-99.99,,,-99.99,,2013-04-24 06:02:00,
2013-04-24 00:12:00,25.0,20.0,-100.00,East,95,4.0,6.0,83,-99.99,,,-99.99,,2013-04-24 06:12:00,
2013-04-24 00:21:00,24.0,20.0,-100.00,East,85,4.0,6.0,84,-99.99,,,-99.99,,2013-04-24 06:21:00,
2013-04-24 00:32:00,24.0,20.0,-100.00,ESE,110,6.0,6.0,84,-99.99,,,-99.99,,2013-04-24 06:32:00,
2013-04-24 00:42:00,24.0,20.0,-100.00,ESE,115,4.0,5.0,84,-99.99,,,-99.99,,2013-04-24 06:42:00,
2013-04-24 00:51:00,23.0,19.0,-100.00,South,190,4.0,5.0,84,-99.99,,,-99.99,,2013-04-24 06:51:00,
2013-04-24 01:02:00,22.0,19.0,-100.00,SW,220,4.0,6.0,84,-99.99,,,-99.99,,2013-04-24 07:02:00,
2013-04-24 01:11:00,24.0,19.0,-100.00,South,190,2.0,4.0,84,-99.99,,,-99.99,,2013-04-24 07:11:00,
2013-04-24 01:22:00,24.0,20.0,-100.00,SSE,150,3.0,4.0,84,-99.99,,,-99.99,,2013-04-24 07:22:00,
2013-04-24 01:32:00,25.0,21.0,-100.00,SE,130,3.0,4.0,84,-99.99,,,-99.99,,2013-04-24 07:32:00,
2013-04-24 01:41:00,24.0,19.0,-100.00,ESE,115,4.0,5.0,84,-99.99,,,-99.99,,2013-04-24 07:41:00,
2013-04-24 01:52:00,23.0,19.0,-100.00,East,90,5.0,6.0,84,-99.99,,,-99.99,,2013-04-24 07:52:00,
2013-04-24 02:01:00,23.0,19.0,-100.00,East,95,4.0,6.0,84,-99.99,,,-99.99,,2013-04-24 08:01:00,
2013-04-24 02:11:00,22.0,18.0,-100.00,ESE,115,4.0,6.0,84,-99.99,,,-99.99,,2013-04-24 08:11:00,
2013-04-24 02:21:00,22.0,18.0,-100.00,SE,125,6.0,6.0,84,-99.99,,,-99.99,,2013-04-24 08:21:00,
2013-04-24 02:33:00,22.0,18.0,-100.00,SSE,150,6.0,8.0,84,-99.99,,,-99.99,,2013-04-24 08:33:00,
2013-04-24 02:42:00,22.0,18.0,-100.00,SSE,160,2.0,6.0,84,-99.99,,,-99.99,,2013-04-24 08:42:00,
2013-04-24 02:52:00,21.0,17.0,-100.00,SE,145,2.0,3.0,84,-99.99,,,-99.99,,2013-04-24 08:52:00,
2013-04-24 03:01:00,18.0,14.0,-100.00,SE,140,4.0,4.0,84,-99.99,,,-99.99,,2013-04-24 09:01:00,
2013-04-24 03:11:00,19.0,15.0,-100.00,SSE,165,5.0,6.0,84,-99.99,,,-99.99,,2013-04-24 09:11:00,
2013-04-24 03:21:00,20.0,15.0,-100.00,SSE,155,5.0,7.0,82,-99.99,,,-99.99,,2013-04-24 09:21:00,
2013-04-24 03:33:00,25.0,20.0,-100.00,SSE,165,3.0,6.0,81,-99.99,,,-99.99,,2013-04-24 09:33:00,
2013-04-24 03:42:00,25.0,20.0,-100.00,South,175,4.0,4.0,81,-99.99,,,-99.99,,2013-04-24 09:42:00,
2013-04-24 03:53:00,24.0,19.0,-100.00,SW,215,4.0,4.0,80,-99.99,,,-99.99,,2013-04-24 09:53:00,
2013-04-24 04:02:00,23.0,18.0,-100.00,SW,230,4.0,5.0,79,-99.99,,,-99.99,,2013-04-24 10:02:00,
2013-04-24 04:12:00,23.0,18.0,-100.00,SSW,200,4.0,4.0,80,-99.99,,,-99.99,,2013-04-24 10:12:00,
2013-04-24 04:22:00,22.0,17.0,-100.00,SSW,200,5.0,6.0,80,-99.99,,,-99.99,,2013-04-24 10:22:00,
2013-04-24 04:32:00,24.0,19.0,-100.00,South,170,5.0,7.0,80,-99.99,,,-99.99,,2013-04-24 10:32:00,
2013-04-24 04:42:00,24.0,19.0,-100.00,South,170,4.0,5.0,80,-99.99,,,-99.99,,2013-04-24 10:42:00,
2013-04-24 04:52:00,24.0,19.0,-100.00,SE,140,5.0,6.0,81,-99.99,,,-99.99,,2013-04-24 10:52:00,
2013-04-24 05:02:00,23.0,18.0,-100.00,ESE,115,5.0,7.0,81,-99.99,,,-99.99,,2013-04-24 11:02:00,
2013-04-24 05:11:00,23.0,18.0,-100.00,ESE,115,6.0,7.0,81,-99.99,,,-99.99,,2013-04-24 11:11:00,
2013-04-24 05:21:00,24.0,19.0,-100.00,SE,125,7.0,7.0,81,-99.99,,,-99.99,,2013-04-24 11:21:00,
2013-04-24 05:32:00,24.0,19.0,-100.00,SE,125,7.0,7.0,81,-99.99,,,-99.99,,2013-04-24 11:32:00,
2013-04-24 05:42:00,24.0,19.0,-100.00,SE,125,7.0,9.0,81,-99.99,,,-99.99,,2013-04-24 11:42:00,
2013-04-24 05:52:00,25.0,20.0,-100.00,ESE,110,8.0,9.0,81,-99.99,,,-99.99,,2013-04-24 11:52:00,
2013-04-24 06:02:00,25.0,20.0,-100.00,SE,125,6.0,10.0,81,-99.99,,,-99.99,,2013-04-24 12:02:00,
2013-04-24 06:11:00,25.0,20.0,-100.00,ESE,120,5.0,7.0,80,-99.99,,,-99.99,,2013-04-24 12:11:00,
2013-04-24 06:22:00,25.0,20.0,-100.00,SE,125,6.0,7.0,80,-99.99,,,-99.99,,2013-04-24 12:22:00,
2013-04-24 06:32:00,25.0,20.0,-100.00,SE,130,5.0,7.0,79,-99.99,,,-99.99,,2013-04-24 12:32:00,
2013-04-24 06:42:00,26.0,20.0,-100.00,SE,140,4.0,6.0,79,-99.99,,,-99.99,,2013-04-24 12:42:00,
2013-04-24 06:51:00,26.0,21.0,-100.00,SE,135,5.0,7.0,78,-99.99,,,-99.99,,2013-04-24 12:51:00,
2013-04-24 07:01:00,27.0,20.0,-100.00,SE,145,4.0,7.0,76,-99.99,,,-99.99,,2013-04-24 13:01:00,
2013-04-24 07:12:00,28.0,21.0,-100.00,SE,135,4.0,6.0,75,-99.99,,,-99.99,,2013-04-24 13:12:00,
2013-04-24 07:22:00,28.0,21.0,-100.00,SE,135,4.0,5.0,75,-99.99,,,-99.99,,2013-04-24 13:22:00,
2013-04-24 07:31:00,28.0,22.0,-100.00,SSE,150,6.0,7.0,74,-99.99,,,-99.99,,2013-04-24 13:31:00,
2013-04-24 07:41:00,29.0,22.0,-100.00,SSE,150,4.0,8.0,72,-99.99,,,-99.99,,2013-04-24 13:41:00,
2013-04-24 07:52:00,30.0,22.0,-100.00,South,180,6.0,9.0,70,-99.99,,,-99.99,,2013-04-24 13:52:00,
2013-04-24 08:01:00,32.0,23.0,-100.00,SW,215,4.0,6.0,70,-99.99,,,-99.99,,2013-04-24 14:01:00,
2013-04-24 08:11:00,33.0,23.0,-100.00,South,190,5.0,7.0,68,-99.99,,,-99.99,,2013-04-24 14:11:00,
2013-04-24 08:21:00,33.0,23.0,-100.00,SSW,210,4.0,7.0,67,-99.99,,,-99.99,,2013-04-24 14:21:00,
2013-04-24 08:32:00,33.0,23.0,-100.00,SSW,210,4.0,7.0,67,-99.99,,,-99.99,,2013-04-24 14:32:00,
2013-04-24 08:41:00,32.0,23.0,-100.00,WSW,240,4.0,6.0,69,-99.99,,,-99.99,,2013-04-24 14:41:00,
2013-04-24 08:51:00,33.0,24.0,-100.00,SW,225,4.0,6.0,69,-99.99,,,-99.99,,2013-04-24 14:51:00,
2013-04-24 09:01:00,34.0,24.0,-100.00,SSW,200,4.0,6.0,68,-99.99,,,-99.99,,2013-04-24 15:01:00,
2013-04-24 09:11:00,35.0,24.0,-100.00,SSE,155,5.0,6.0,65,-99.99,,,-99.99,,2013-04-24 15:11:00,
2013-04-24 09:21:00,35.0,24.0,-100.00,South,185,4.0,6.0,62,-99.99,,,-99.99,,2013-04-24 15:21:00,
2013-04-24 09:33:00,36.0,24.0,-100.00,SSE,160,6.0,7.0,60,-99.99,,,-99.99,,2013-04-24 15:33:00,
2013-04-24 09:42:00,37.0,23.0,-100.00,SSE,165,4.0,6.0,57,-99.99,,,-99.99,,2013-04-24 15:42:00,
2013-04-24 09:52:00,39.0,23.0,-100.00,South,180,2.0,5.0,52,-99.99,,,-99.99,,2013-04-24 15:52:00,
2013-04-24 10:03:00,40.0,21.0,-100.00,SSW,205,3.0,4.0,46,-99.99,,,-99.99,,2013-04-24 16:03:00,
2013-04-24 10:12:00,40.0,21.0,-100.00,SSW,205,3.0,4.0,46,-99.99,,,-99.99,,2013-04-24 16:12:00,
2013-04-24 10:23:00,43.0,20.0,-100.00,South,175,5.0,6.0,40,-99.99,,,-99.99,,2013-04-24 16:23:00,
2013-04-24 10:32:00,42.0,19.0,-100.00,SSE,155,4.0,7.0,39,-99.99,,,-99.99,,2013-04-24 16:32:00,
2013-04-24 10:42:00,43.0,18.0,-100.00,ESE,105,2.0,6.0,36,-99.99,,,-99.99,,2013-04-24 16:42:00,
2013-04-24 10:52:00,45.0,17.0,-100.00,WNW,285,1.0,5.0,31,-99.99,,,-99.99,,2013-04-24 16:52:00,
2013-04-24 11:02:00,47.0,17.0,-100.00,SSE,150,1.0,7.0,29,-99.99,,,-99.99,,2013-04-24 17:02:00,
2013-04-24 11:12:00,47.0,16.0,-100.00,ESE,105,4.0,7.0,28,-99.99,,,-99.99,,2013-04-24 17:12:00,
2013-04-24 11:22:00,46.0,13.0,-100.00,ENE,70,3.0,6.0,25,-99.99,,,-99.99,,2013-04-24 17:22:00,
2013-04-24 11:32:00,47.0,14.0,-100.00,SE,125,2.0,6.0,25,-99.99,,,-99.99,,2013-04-24 17:32:00,
2013-04-24 11:42:00,47.0,13.0,-100.00,ESE,105,6.0,9.0,25,-99.99,,,-99.99,,2013-04-24 17:42:00,
2013-04-24 11:51:00,47.0,13.0,-100.00,NE,40,4.0,8.0,25,-99.99,,,-99.99,,2013-04-24 17:51:00,
2013-04-24 12:02:00,47.0,13.0,-100.00,NE,40,4.0,8.0,25,-99.99,,,-99.99,,2013-04-24 18:02:00,
2013-04-24 12:12:00,48.0,14.0,-100.00,SSE,155,7.0,10.0,25,-99.99,,,-99.99,,2013-04-24 18:12:00,
2013-04-24 12:21:00,49.0,14.0,-100.00,SSE,150,7.0,11.0,24,-99.99,,,-99.99,,2013-04-24 18:21:00,
2013-04-24 12:33:00,49.0,14.0,-100.00,SE,125,6.0,12.0,24,-99.99,,,-99.99,,2013-04-24 18:33:00,
2013-04-24 12:42:00,49.0,14.0,-100.00,SE,135,10.0,13.0,23,-99.99,,,-99.99,,2013-04-24 18:42:00,
2013-04-24 12:52:00,51.0,15.0,-100.00,SE,145,4.0,11.0,24,-99.99,,,-99.99,,2013-04-24 18:52:00,
2013-04-24 13:02:00,52.0,17.0,-100.00,South,185,7.0,13.0,24,-99.99,,,-99.99,,2013-04-24 19:02:00,
2013-04-24 13:11:00,53.0,17.0,-100.00,South,185,7.0,14.0,23,-99.99,,,-99.99,,2013-04-24 19:11:00,
2013-04-24 13:21:00,53.0,16.0,-100.00,SSE,150,5.0,16.0,22,-99.99,,,-99.99,,2013-04-24 19:21:00,
2013-04-24 13:31:00,53.0,17.0,-100.00,SSE,165,13.0,25.0,23,-99.99,,,-99.99,,2013-04-24 19:31:00,
2013-04-24 13:42:00,53.0,15.0,-100.00,SW,225,12.0,17.0,22,-99.99,,,-99.99,,2013-04-24 19:42:00,
2013-04-24 13:52:00,54.0,16.0,-100.00,SW,225,12.0,20.0,22,-99.99,,,-99.99,,2013-04-24 19:52:00,
2013-04-24 14:01:00,54.0,16.0,-100.00,SW,225,12.0,20.0,22,-99.99,,,-99.99,,2013-04-24 20:01:00,
2013-04-24 14:11:00,52.0,14.0,-100.00,WSW,255,12.0,19.0,21,-99.99,,,-99.99,,2013-04-24 20:11:00,
2013-04-24 14:21:00,52.0,14.0,-100.00,SW,230,12.0,17.0,21,-99.99,,,-99.99,,2013-04-24 20:21:00,
2013-04-24 14:32:00,53.0,13.0,-100.00,WSW,245,15.0,21.0,20,-99.99,,,-99.99,,2013-04-24 20:32:00,
2013-04-24 14:42:00,54.0,14.0,-100.00,SW,215,9.0,20.0,20,-99.99,,,-99.99,,2013-04-24 20:42:00,
2013-04-24 14:52:00,53.0,13.0,-100.00,SSW,200,17.0,24.0,20,-99.99,,,-99.99,,2013-04-24 20:52:00,
2013-04-24 15:02:00,52.0,13.0,-100.00,WSW,240,14.0,27.0,21,-99.99,,,-99.99,,2013-04-24 21:02:00,
2013-04-24 15:11:00,53.0,14.0,-100.00,SW,215,15.0,20.0,21,-99.99,,,-99.99,,2013-04-24 21:11:00,
2013-04-24 15:21:00,53.0,15.0,-100.00,SW,220,10.0,18.0,21,-99.99,,,-99.99,,2013-04-24 21:21:00,
2013-04-24 15:33:00,52.0,13.0,-100.00,SSW,210,11.0,21.0,21,-99.99,,,-99.99,,2013-04-24 21:33:00,
2013-04-24 15:42:00,51.0,14.0,-100.00,South,190,14.0,21.0,21,-99.99,,,-99.99,,2013-04-24 21:42:00,
2013-04-24 15:52:00,52.0,14.0,-100.00,SSW,210,10.0,19.0,21,-99.99,,,-99.99,,2013-04-24 21:52:00,
2013-04-24 16:03:00,52.0,13.0,-100.00,South,185,10.0,17.0,21,-99.99,,,-99.99,,2013-04-24 22:03:00,
2013-04-24 16:12:00,52.0,13.0,-100.00,South,170,5.0,11.0,20,-99.99,,,-99.99,,2013-04-24 22:12:00,
2013-04-24 16:22:00,54.0,14.0,-100.00,SW,230,2.0,9.0,20,-99.99,,,-99.99,,2013-04-24 22:22:00,
2013-04-24 16:33:00,55.0,14.0,-100.00,SW,215,9.0,11.0,19,-99.99,,,-99.99,,2013-04-24 22:33:00,
2013-04-24 16:42:00,53.0,13.0,-100.00,SW,230,13.0,20.0,19,-99.99,,,-99.99,,2013-04-24 22:42:00,
2013-04-24 16:52:00,53.0,13.0,-100.00,SW,225,9.0,15.0,20,-99.99,,,-99.99,,2013-04-24 22:52:00,
2013-04-24 17:02:00,54.0,13.0,-100.00,SSW,210,4.0,16.0,19,-99.99,,,-99.99,,2013-04-24 23:02:00,
2013-04-24 17:12:00,53.0,12.0,-100.00,West,265,10.0,16.0,19,-99.99,,,-99.99,,2013-04-24 23:12:00,
2013-04-24 17:21:00,56.0,13.0,-100.00,SSW,205,7.0,12.0,18,-99.99,,,-99.99,,2013-04-24 23:21:00,
2013-04-24 17:32:00,54.0,12.0,-100.00,NW,305,7.0,11.0,18,-99.99,,,-99.99,,2013-04-24 23:32:00,
2013-04-24 17:42:00,54.0,13.0,-100.00,SW,220,5.0,8.0,19,-99.99,,,-99.99,,2013-04-24 23:42:00,
2013-04-24 17:51:00,53.0,13.0,-100.00,WSW,245,12.0,16.0,19,-99.99,,,-99.99,,2013-04-24 23:51:00,
2013-04-24 18:01:00,53.0,13.0,-100.00,WSW,250,11.0,14.0,19,-99.99,,,-99.99,,2013-04-25 00:01:00,
2013-04-24 18:12:00,53.0,13.0,-100.00,WSW,250,9.0,15.0,19,-99.99,,,-99.99,,2013-04-25 00:12:00,
2013-04-24 18:22:00,54.0,13.0,-100.00,WSW,245,6.0,12.0,19,-99.99,,,-99.99,,2013-04-25 00:22:00,
2013-04-24 18:32:00,53.0,12.0,-100.00,West,275,7.0,10.0,19,-99.99,,,-99.99,,2013-04-25 00:32:00,
2013-04-24 18:41:00,53.0,13.0,-100.00,West,275,11.0,16.0,19,-99.99,,,-99.99,,2013-04-25 00:41:00,
2013-04-24 18:52:00,53.0,13.0,-100.00,WSW,255,10.0,16.0,20,-99.99,,,-99.99,,2013-04-25 00:52:00,
2013-04-24 19:01:00,52.0,13.0,-100.00,West,260,9.0,12.0,20,-99.99,,,-99.99,,2013-04-25 01:01:00,
2013-04-24 19:11:00,51.0,12.0,-100.00,West,270,11.0,13.0,20,-99.99,,,-99.99,,2013-04-25 01:11:00,
2013-04-24 19:22:00,50.0,12.0,-100.00,West,280,9.0,12.0,21,-99.99,,,-99.99,,2013-04-25 01:22:00,
2013-04-24 19:32:00,49.0,13.0,-100.00,West,275,6.0,9.0,23,-99.99,,,-99.99,,2013-04-25 01:32:00,
2013-04-24 19:42:00,47.0,13.0,-100.00,West,275,6.0,9.0,24,-99.99,,,-99.99,,2013-04-25 01:42:00,
2013-04-24 19:52:00,47.0,13.0,-100.00,WNW,290,4.0,7.0,24,-99.99,,,-99.99,,2013-04-25 01:52:00,
2013-04-24 20:02:00,46.0,13.0,-100.00,WNW,300,1.0,4.0,26,-99.99,,,-99.99,,2013-04-25 02:02:00,
2013-04-24 20:11:00,46.0,13.0,-100.00,WNW,300,1.0,4.0,26,-99.99,,,-99.99,,2013-04-25 02:11:00,
2013-04-24 20:22:00,45.0,13.0,-100.00,WNW,285,3.0,4.0,27,-99.99,,,-99.99,,2013-04-25 02:22:00,
2013-04-24 20:32:00,44.0,13.0,-100.00,NW,315,1.0,2.0,28,-99.99,,,-99.99,,2013-04-25 02:32:00,
2013-04-24 20:42:00,44.0,13.0,-100.00,NW,315,1.0,2.0,28,-99.99,,,-99.99,,2013-04-25 02:42:00,
2013-04-24 20:51:00,44.0,13.0,-100.00,NW,315,1.0,2.0,28,-99.99,,,-99.99,,2013-04-25 02:51:00,
2013-04-24 21:02:00,41.0,15.0,-100.00,NE,55,4.0,5.0,34,-99.99,,,-99.99,,2013-04-25 03:02:00,
2013-04-24 21:11:00,40.0,17.0,-100.00,NE,45,4.0,4.0,38,-99.99,,,-99.99,,2013-04-25 03:11:00,
2013-04-24 21:22:00,39.0,18.0,-100.00,NE,45,4.0,6.0,42,-99.99,,,-99.99,,2013-04-25 03:22:00,
2013-04-24 21:33:00,37.0,19.0,-100.00,ENE,65,5.0,6.0,47,-99.99,,,-99.99,,2013-04-25 03:33:00,
2013-04-24 21:42:00,37.0,19.0,-100.00,NE,45,5.0,6.0,47,-99.99,,,-99.99,,2013-04-25 03:42:00,
2013-04-24 21:52:00,37.0,19.0,-100.00,ENE,70,6.0,6.0,48,-99.99,,,-99.99,,2013-04-25 03:52:00,
2013-04-24 22:03:00,36.0,19.0,-100.00,East,95,6.0,7.0,50,-99.99,,,-99.99,,2013-04-25 04:03:00,
2013-04-24 22:12:00,35.0,20.0,-100.00,East,85,6.0,7.0,53,-99.99,,,-99.99,,2013-04-25 04:12:00,
2013-04-24 22:22:00,33.0,21.0,-100.00,East,80,6.0,7.0,60,-99.99,,,-99.99,,2013-04-25 04:22:00,
2013-04-24 22:32:00,34.0,22.0,-100.00,ENE,70,6.0,7.0,62,-99.99,,,-99.99,,2013-04-25 04:32:00,
2013-04-24 22:43:00,33.0,23.0,-100.00,East,80,7.0,9.0,66,-99.99,,,-99.99,,2013-04-25 04:43:00,
2013-04-24 22:52:00,33.0,24.0,-100.00,East,95,7.0,9.0,67,-99.99,,,-99.99,,2013-04-25 04:52:00,
2013-04-24 23:02:00,33.0,24.0,-100.00,East,85,7.0,8.0,70,-99.99,,,-99.99,,2013-04-25 05:02:00,
2013-04-24 23:12:00,33.0,25.0,-100.00,East,85,7.0,9.0,74,-99.99,,,-99.99,,2013-04-25 05:12:00,
2013-04-24 23:21:00,32.0,25.0,-100.00,ENE,75,6.0,8.0,75,-99.99,,,-99.99,,2013-04-25 05:21:00,
2013-04-24 23:32:00,31.0,25.0,-100.00,East,85,6.0,7.0,76,-99.99,,,-99.99,,2013-04-25 05:32:00,
2013-04-24 23:42:00,30.0,24.0,-100.00,East,85,6.0,8.0,78,-99.99,,,-99.99,,2013-04-25 05:42:00,
2013-04-24 23:51:00,29.0,24.0,-100.00,East,95,7.0,9.0,80,-99.99,,,-99.99,,2013-04-25 05:51:00,